createdAt,value
2016-11-12T17:24:28.649Z,1026.46
2016-11-12T17:25:28.672Z,1026.47
2016-11-12T17:26:28.713Z,1026.46
2016-11-12T17:27:28.729Z,1026.44
2016-11-12T17:52:23.204Z,1026.57
2016-11-12T17:53:23.236Z,1026.54
2016-11-12T17:54:23.256Z,1026.54
2016-11-12T18:09:27.132Z,1026.47
2016-11-12T18:09:31.972Z,1026.51
2016-11-12T18:10:42.041Z,1026.48
2016-11-12T18:11:46.688Z,1026.48
2016-11-12T18:12:56.805Z,1026.42
2016-11-12T18:14:07.184Z,1026.41
2016-11-12T18:15:17.260Z,1026.45
2016-11-12T18:16:27.437Z,1026.44
2016-11-12T18:17:36.921Z,1026.46
2016-11-12T18:18:46.981Z,1026.45
2016-11-12T18:19:57.085Z,1026.41
2016-11-12T18:21:07.446Z,1026.46
2016-11-12T18:22:17.889Z,1026.49
2016-11-12T18:23:27.664Z,1026.51
2016-11-12T18:24:37.841Z,1026.53
2016-11-12T18:25:48.972Z,1026.59
2016-11-12T18:26:59.881Z,1026.57
2016-11-12T18:28:09.668Z,1026.62
2016-11-12T18:29:19.744Z,1026.58
2016-11-12T18:30:30.046Z,1026.6
2016-11-12T18:31:40.337Z,1026.59
2016-11-12T18:32:50.776Z,1026.59
2016-11-12T18:34:01.230Z,1026.64
2016-11-12T18:35:11.626Z,1026.7
2016-11-12T18:36:21.044Z,1026.71
2016-11-12T18:37:31.557Z,1026.69
2016-11-12T18:38:41.761Z,1026.69
2016-11-12T18:39:52.139Z,1026.75
2016-11-12T18:41:02.539Z,1026.74
2016-11-12T18:42:12.802Z,1026.7
2016-11-12T18:43:22.573Z,1026.68
2016-11-12T18:44:32.329Z,1026.69
2016-11-12T18:45:42.847Z,1026.74
2016-11-12T18:46:52.899Z,1026.69
2016-11-12T18:48:02.652Z,1026.69
2016-11-12T18:49:12.781Z,1026.63
2016-11-12T18:50:22.533Z,1026.67
2016-11-12T18:51:32.631Z,1026.77
2016-11-12T18:52:42.916Z,1026.7
2016-11-12T18:53:53.299Z,1026.74
2016-11-12T18:55:03.422Z,1026.82
2016-11-12T18:56:13.821Z,1026.8
2016-11-12T18:57:23.904Z,1026.81
2016-11-12T18:58:34.298Z,1026.76
2016-11-12T18:59:44.198Z,1026.79
2016-11-12T19:00:54.541Z,1026.75
2016-11-12T19:02:04.639Z,1026.81
2016-11-12T19:03:14.419Z,1026.82
2016-11-12T19:04:23.859Z,1026.84
2016-11-12T19:05:34.224Z,1026.81
2016-11-12T19:06:44.589Z,1026.87
2016-11-12T19:07:54.957Z,1026.87
2016-11-12T19:09:05.064Z,1026.88
2016-11-12T19:10:15.479Z,1026.88
2016-11-12T19:11:25.553Z,1026.94
2016-11-12T19:12:35.892Z,1026.92
2016-11-12T19:13:45.460Z,1026.91
2016-11-12T19:14:55.213Z,1026.92
2016-11-12T19:16:05.537Z,1026.92
2016-11-12T19:17:15.937Z,1026.88
2016-11-12T19:18:26.320Z,1026.86
2016-11-12T19:19:36.363Z,1026.91
2016-11-12T19:20:46.816Z,1026.86
2016-11-12T19:21:56.858Z,1026.88
2016-11-12T19:23:06.931Z,1026.88
2016-11-12T19:24:17.039Z,1026.92
2016-11-12T19:25:27.399Z,1026.92
2016-11-12T19:26:37.839Z,1026.95
2016-11-12T19:27:47.920Z,1026.93
2016-11-12T19:28:57.704Z,1026.93
2016-11-12T19:30:07.474Z,1026.91
2016-11-12T19:31:17.809Z,1026.92
2016-11-12T19:32:27.957Z,1026.9
2016-11-12T19:33:38.310Z,1026.95
2016-11-12T19:34:48.718Z,1026.95
2016-11-12T19:35:58.783Z,1026.99
2016-11-12T19:37:09.156Z,1026.98
2016-11-12T19:38:19.492Z,1026.96
2016-11-12T19:39:29.999Z,1026.99
2016-11-12T19:40:40.377Z,1026.99
2016-11-12T19:41:50.125Z,1027.01
2016-11-12T19:43:00.212Z,1026.97
2016-11-12T19:44:10.295Z,1026.96
2016-11-12T19:45:20.647Z,1026.97
2016-11-12T19:46:31.114Z,1026.95
2016-11-12T19:47:41.467Z,1026.97
2016-11-12T19:48:51.579Z,1026.94
2016-11-12T19:50:01.994Z,1026.98
2016-11-12T19:51:12.334Z,1026.98
2016-11-12T19:52:22.589Z,1026.99
2016-11-12T19:53:32.991Z,1027
2016-11-12T19:54:43.327Z,1027.04
2016-11-12T19:55:53.719Z,1027.02
2016-11-12T19:57:04.138Z,1027.07
2016-11-12T19:58:14.484Z,1027.06
2016-11-12T19:59:24.645Z,1027.06
2016-11-12T20:00:35.442Z,1027.06
2016-11-12T20:01:45.538Z,1027.09
2016-11-12T20:02:55.907Z,1027.09
2016-11-12T20:04:06.377Z,1027.08
2016-11-12T20:05:16.490Z,1027.06
2016-11-12T20:06:26.555Z,1027.06
2016-11-12T20:07:37.015Z,1027.07
2016-11-12T20:08:47.232Z,1027.04
2016-11-12T20:09:57.309Z,1027.07
2016-11-12T20:11:07.806Z,1027.06
2016-11-12T20:12:17.907Z,1027.07
2016-11-12T20:13:28.293Z,1027.08
2016-11-12T20:14:38.350Z,1027.08
2016-11-12T20:15:48.423Z,1027.06
2016-11-12T20:16:58.864Z,1027.07
2016-11-12T20:18:09.017Z,1027.03
2016-11-12T20:19:19.161Z,1027
2016-11-12T20:20:29.591Z,1026.96
2016-11-12T20:21:40.180Z,1026.97
2016-11-12T20:22:50.245Z,1027.02
2016-11-12T20:24:00.758Z,1026.97
2016-11-12T20:25:11.098Z,1027.01
2016-11-12T20:26:20.873Z,1026.96
2016-11-12T20:27:30.932Z,1026.97
2016-11-12T20:28:40.432Z,1026.98
2016-11-12T20:29:50.534Z,1026.99
2016-11-12T20:31:00.296Z,1027
2016-11-12T20:32:10.749Z,1027.01
2016-11-12T20:33:21.131Z,1026.99
2016-11-12T20:34:30.571Z,1027.03
2016-11-12T20:35:40.659Z,1027.03
2016-11-12T20:36:51.056Z,1027.07
2016-11-12T20:38:01.119Z,1027.04
2016-11-12T20:39:10.892Z,1027.07
2016-11-12T20:40:20.958Z,1027.06
2016-11-12T20:41:31.512Z,1027.05
2016-11-12T20:42:41.556Z,1027.07
2016-11-12T20:43:52.045Z,1027.08
2016-11-12T20:45:01.579Z,1027.06
2016-11-12T20:46:11.978Z,1027.05
2016-11-12T20:47:21.769Z,1027.05
2016-11-12T20:48:31.875Z,1027.04
2016-11-12T20:49:41.769Z,1027.01
2016-11-12T20:50:52.138Z,1027
2016-11-12T20:52:01.903Z,1026.96
2016-11-12T20:53:12.128Z,1026.95
2016-11-12T20:54:21.647Z,1026.96
2016-11-12T20:55:31.397Z,1026.96
2016-11-12T20:56:41.210Z,1027
2016-11-12T20:57:51.298Z,1027.01
2016-11-12T20:59:01.668Z,1027.01
2016-11-12T21:00:11.431Z,1027.03
2016-11-12T21:01:21.606Z,1027.05
2016-11-12T21:02:32.071Z,1027.1
2016-11-12T21:03:42.481Z,1027.07
2016-11-12T21:04:52.854Z,1027.12
2016-11-12T21:06:03.002Z,1027.14
2016-11-12T21:07:13.463Z,1027.16
2016-11-12T21:08:23.903Z,1027.19
2016-11-12T21:09:33.410Z,1027.17
2016-11-12T21:10:43.891Z,1027.18
2016-11-12T21:11:53.962Z,1027.15
2016-11-12T21:13:04.151Z,1027.12
2016-11-12T21:14:14.728Z,1027.08
2016-11-12T21:15:24.575Z,1027.08
2016-11-12T21:16:34.940Z,1027.09
2016-11-12T21:17:45.386Z,1027.09
2016-11-12T21:18:55.768Z,1027.06
2016-11-12T21:20:06.120Z,1027.05
2016-11-12T21:21:16.713Z,1027.03
2016-11-12T21:22:26.770Z,1026.97
2016-11-12T21:23:37.207Z,1026.95
2016-11-12T21:24:47.019Z,1026.94
2016-11-12T21:25:56.829Z,1026.93
2016-11-12T21:27:07.321Z,1026.88
2016-11-12T21:28:17.469Z,1026.88
2016-11-12T21:29:27.290Z,1026.88
2016-11-12T21:30:37.430Z,1026.93
2016-11-12T21:31:47.780Z,1026.93
2016-11-12T21:32:57.865Z,1026.91
2016-11-12T21:34:07.287Z,1026.88
2016-11-12T21:35:17.033Z,1026.94
2016-11-12T21:36:27.446Z,1026.9
2016-11-12T21:37:37.591Z,1026.98
2016-11-12T21:38:47.861Z,1026.94
2016-11-12T21:39:58.298Z,1026.93
2016-11-12T21:41:08.665Z,1026.94
2016-11-12T21:42:19.130Z,1027
2016-11-12T21:43:29.621Z,1026.95
2016-11-12T21:44:40.205Z,1026.95
2016-11-12T21:45:50.381Z,1026.93
2016-11-12T21:47:04.058Z,1026.98
2016-11-12T21:48:13.980Z,1027
2016-11-12T21:49:24.087Z,1027
2016-11-12T21:50:34.821Z,1026.94
2016-11-12T21:51:44.969Z,1026.99
2016-11-12T21:52:55.170Z,1026.99
2016-11-12T21:54:05.550Z,1026.98
2016-11-12T21:55:16.011Z,1026.98
2016-11-12T21:56:26.199Z,1026.95
2016-11-12T21:57:36.601Z,1026.95
2016-11-12T21:58:46.750Z,1026.93
2016-11-12T21:59:57.110Z,1026.93
2016-11-12T22:01:07.164Z,1026.93
2016-11-12T22:02:16.952Z,1026.91
2016-11-12T22:03:27.106Z,1026.92
2016-11-12T22:04:37.477Z,1026.91
2016-11-12T22:05:47.582Z,1026.88
2016-11-12T22:06:57.928Z,1026.84
2016-11-12T22:08:07.985Z,1026.88
2016-11-12T22:09:18.328Z,1026.88
2016-11-12T22:10:28.371Z,1026.83
2016-11-12T22:11:38.701Z,1026.82
2016-11-12T22:12:49.343Z,1026.8
2016-11-12T22:13:59.374Z,1026.8
2016-11-12T22:15:09.287Z,1026.75
2016-11-12T22:16:19.657Z,1026.76
2016-11-12T22:17:29.379Z,1026.76
2016-11-12T22:18:38.978Z,1026.76
2016-11-12T22:19:49.340Z,1026.74
2016-11-12T22:20:59.388Z,1026.69
2016-11-12T22:22:09.519Z,1026.73
2016-11-12T22:23:19.861Z,1026.69
2016-11-12T22:24:30.016Z,1026.66
2016-11-12T22:25:40.470Z,1026.66
2016-11-12T22:26:50.627Z,1026.65
2016-11-12T22:28:01.336Z,1026.67
2016-11-12T22:29:11.538Z,1026.68
2016-11-12T22:30:21.625Z,1026.7
2016-11-12T22:31:31.818Z,1026.65
2016-11-12T22:32:42.199Z,1026.67
2016-11-12T22:33:52.317Z,1026.7
2016-11-12T22:35:02.668Z,1026.69
2016-11-12T22:36:12.395Z,1026.71
2016-11-12T22:37:22.186Z,1026.74
2016-11-12T22:38:32.608Z,1026.66
2016-11-12T22:39:42.953Z,1026.72
2016-11-12T22:40:53.293Z,1026.71
2016-11-12T22:42:03.324Z,1026.72
2016-11-12T22:43:13.655Z,1026.69
2016-11-12T22:44:24.388Z,1026.66
2016-11-12T22:45:34.729Z,1026.68
2016-11-12T22:46:44.437Z,1026.62
2016-11-12T22:47:54.220Z,1026.64
2016-11-12T22:49:04.673Z,1026.56
2016-11-12T22:50:14.713Z,1026.59
2016-11-12T22:51:24.833Z,1026.61
2016-11-12T22:52:34.871Z,1026.58
2016-11-12T22:53:44.310Z,1026.6
2016-11-12T22:54:54.031Z,1026.58
2016-11-12T22:56:03.615Z,1026.62
2016-11-12T22:57:13.940Z,1026.62
2016-11-12T22:58:24.488Z,1026.67
2016-11-12T22:59:33.922Z,1026.72
2016-11-12T23:00:44.074Z,1026.71
2016-11-12T23:01:53.508Z,1026.72
2016-11-12T23:03:03.554Z,1026.77
2016-11-12T23:04:13.299Z,1026.76
2016-11-12T23:05:23.539Z,1026.78
2016-11-12T23:06:32.939Z,1026.76
2016-11-12T23:07:43.379Z,1026.77
2016-11-12T23:08:53.468Z,1026.76
2016-11-12T23:10:03.506Z,1026.78
2016-11-12T23:11:13.555Z,1026.82
2016-11-12T23:12:23.000Z,1026.8
2016-11-12T23:13:33.440Z,1026.78
2016-11-12T23:14:43.776Z,1026.74
2016-11-12T23:15:53.851Z,1026.77
2016-11-12T23:17:04.124Z,1026.73
2016-11-12T23:18:14.166Z,1026.72
2016-11-12T23:19:24.001Z,1026.74
2016-11-12T23:20:34.288Z,1026.72
2016-11-12T23:21:44.429Z,1026.71
2016-11-12T23:22:54.867Z,1026.76
2016-11-12T23:24:04.890Z,1026.7
2016-11-12T23:25:14.598Z,1026.71
2016-11-12T23:26:23.754Z,1026.72
2016-11-12T23:27:33.468Z,1026.71
2016-11-12T23:28:43.549Z,1026.68
2016-11-12T23:29:52.976Z,1026.68
2016-11-12T23:31:02.707Z,1026.69
2016-11-12T23:32:12.527Z,1026.67
2016-11-12T23:33:22.351Z,1026.65
2016-11-12T23:34:32.081Z,1026.67
2016-11-12T23:35:42.186Z,1026.6
2016-11-12T23:36:52.294Z,1026.59
2016-11-12T23:38:02.895Z,1026.61
2016-11-12T23:39:13.240Z,1026.55
2016-11-12T23:40:22.948Z,1026.59
2016-11-12T23:41:32.671Z,1026.57
2016-11-12T23:42:42.416Z,1026.62
2016-11-12T23:43:52.498Z,1026.6
2016-11-12T23:45:02.609Z,1026.62
2016-11-12T23:46:12.661Z,1026.55
2016-11-12T23:47:22.835Z,1026.6
2016-11-12T23:48:33.259Z,1026.58
2016-11-12T23:49:42.960Z,1026.56
2016-11-12T23:50:53.349Z,1026.56
2016-11-12T23:52:03.090Z,1026.53
2016-11-12T23:53:12.803Z,1026.55
2016-11-12T23:54:22.641Z,1026.54
2016-11-12T23:55:31.753Z,1026.52
2016-11-12T23:56:42.333Z,1026.56
2016-11-12T23:57:52.366Z,1026.51
2016-11-12T23:59:02.839Z,1026.56
